Terminal Aerodrome Forecast
Issued by NWS Sterling, VA

Current Version | Previous Version | Graphics & Text | Print | Product List | Glossary On
Versions: 1 2 3 4 5 6 7 8 9 10 11 12 13 14 15 16 17 18 19 20 21 22
091
FTUS41 KLWX 262335
TAFDCA
TAF
KDCA 262335Z 2700/2724 20007KT P6SM SCT080
     FM270500 29005KT P6SM SCT080
     FM271100 31004KT P6SM BKN150
     FM271600 27010G17KT P6SM SCT070
     FM272300 28008KT P6SM SCT070=

USA.gov is the U.S. government's official web portal to all federal, state and local government web resources and services.